Jago, Mississippi
Current Conditions -  °F | °C
As of 9:54 PM on Thursday 27 Nov 2014 (Local Time) from KMEM Reporting Station
Clear Clear  
Wind Chill: 34°   Ceiling: Unl
Heat Index: 34°   Visibility: 10mi
Dew Point: 27°   Wind: 3mph
Humidity: 75%   Direction: 190°S
Pressure: 30.47"   Gusts: NA
Location:  34.9498°N, 90.0305°W
Report Text: KMEM 280354Z 19003KT 10SM CLR 01/M03 A3047 RMK AO2 SLP319 T00111028 $
Loading
Personal Weather Stations






























Interactive Weather Map New forecast layout! Learn more

10-Day Weather Forecast

Advertisements
Track Severe Weather on mobile